Time;durP1;ratioP1;P1;durP2;ratioP2;P2;SDS_P1;SDS_P2;PMS_P1;PMS_P2;Temp;Humidity;BMP_temperature;BMP_pressure;BME280_temperature;BME280_humidity;BME280_pressure;Samples;Min_cycle;Max_cycle;Signal;HPM_P1;HPM_P2
2021/12/16 00:06:59;;;;;;;6.93;5.43;;;21.20;45.50;;;;;;5035632;28;20083;-71
2021/12/16 00:09:27;;;;;;;9.52;5.90;;;21.20;45.50;;;;;;5035104;28;20120;-72
2021/12/16 00:29:06;;;;;;;6.85;5.50;;;21.20;45.50;;;;;;5035187;28;20029;-71
2021/12/16 00:31:45;;;;;;;9.18;6.45;;;21.20;45.50;;;;;;5035077;28;20037;-71
2021/12/16 00:34:11;;;;;;;7.00;5.82;;;21.20;45.50;;;;;;5034694;28;20025;-71
2021/12/16 00:36:39;;;;;;;6.57;5.50;;;21.20;45.60;;;;;;5033407;28;20032;-71
2021/12/16 00:39:12;;;;;;;6.97;5.43;;;21.20;45.50;;;;;;5034511;28;20386;-71
2021/12/16 00:41:40;;;;;;;7.03;5.55;;;21.20;45.60;;;;;;5034662;28;20466;-72
2021/12/16 00:44:15;;;;;;;6.30;5.40;;;21.20;45.50;;;;;;5033280;28;20386;-71
2021/12/16 00:54:43;;;;;;;7.70;5.80;;;21.20;45.50;;;;;;5034603;28;20033;-71
2021/12/16 00:57:13;;;;;;;7.82;5.55;;;21.20;45.50;;;;;;5034413;28;20021;-71
2021/12/16 00:59:43;;;;;;;7.50;5.75;;;21.20;45.50;;;;;;5034135;28;20048;-71
2021/12/16 01:05:17;;;;;;;6.38;5.70;;;21.20;45.60;;;;;;5043748;28;20032;-71
2021/12/16 01:35:33;;;;;;;7.45;6.10;;;21.10;45.60;;;;;;5033687;28;20397;-71
2021/12/16 01:57:19;;;;;;;6.63;5.60;;;21.10;45.50;;;;;;5033261;28;20028;-71
2021/12/16 01:59:48;;;;;;;6.50;5.57;;;21.10;45.60;;;;;;5033107;28;20542;-71
2021/12/16 02:08:08;;;;;;;6.53;5.78;;;21.10;45.60;;;;;;5047247;28;20493;-71
2021/12/16 02:10:39;;;;;;;7.03;5.70;;;21.10;45.60;;;;;;5053018;28;20029;-71
2021/12/16 02:13:35;;;;;;;6.80;5.25;;;21.10;45.50;;;;;;5051371;28;20065;-71
2021/12/16 02:32:48;;;;;;;6.35;5.45;;;21.20;45.60;;;;;;5032831;28;20083;-71
2021/12/16 02:37:32;;;;;;;7.78;5.88;;;21.10;45.50;;;;;;5032976;28;20462;-71
2021/12/16 02:39:58;;;;;;;5.95;5.35;;;21.10;45.50;;;;;;5033567;28;20045;-71
2021/12/16 02:42:36;;;;;;;6.30;5.50;;;21.10;45.50;;;;;;5036842;28;20444;-71
2021/12/16 02:50:20;;;;;;;6.70;5.32;;;21.20;45.50;;;;;;5037094;28;20094;-71
2021/12/16 02:52:46;;;;;;;6.45;5.50;;;21.10;45.50;;;;;;5036442;28;20116;-71
2021/12/16 02:55:14;;;;;;;6.70;5.72;;;21.10;45.50;;;;;;5036672;28;20119;-71
2021/12/16 02:57:59;;;;;;;5.90;5.30;;;21.20;45.50;;;;;;5035574;28;20466;-71
2021/12/16 03:00:25;;;;;;;6.03;5.18;;;21.10;45.40;;;;;;5036413;28;20017;-71
2021/12/16 03:02:52;;;;;;;6.72;5.57;;;21.20;45.50;;;;;;5037787;28;20381;-71
2021/12/16 03:05:20;;;;;;;6.97;5.55;;;21.10;45.40;;;;;;5044168;28;20079;-71
2021/12/16 03:07:46;;;;;;;6.40;5.35;;;21.10;45.40;;;;;;5036244;28;20021;-71
2021/12/16 03:10:57;;;;;;;5.95;5.35;;;21.20;45.40;;;;;;5036241;28;20045;-71
2021/12/16 03:13:24;;;;;;;7.57;5.20;;;21.20;45.40;;;;;;5036062;28;20053;-71
2021/12/16 03:16:13;;;;;;;7.43;5.50;;;21.10;45.50;;;;;;5036105;28;20021;-71
2021/12/16 03:19:08;;;;;;;7.05;5.03;;;21.20;45.50;;;;;;5049553;28;20124;-71
2021/12/16 03:21:40;;;;;;;8.07;5.20;;;21.10;45.40;;;;;;5056109;28;20025;-71
2021/12/16 03:29:41;;;;;;;6.72;5.07;;;21.10;45.50;;;;;;5055915;28;20053;-71
2021/12/16 03:32:31;;;;;;;7.22;5.30;;;21.10;45.50;;;;;;5037060;28;20080;-73
2021/12/16 03:35:25;;;;;;;5.85;4.72;;;21.10;45.50;;;;;;5036063;28;20045;-71
2021/12/16 03:37:50;;;;;;;6.13;5.18;;;21.10;45.50;;;;;;5035732;28;20029;-71
2021/12/16 03:40:17;;;;;;;6.07;5.07;;;21.10;45.50;;;;;;5035863;28;20500;-71
2021/12/16 03:42:53;;;;;;;6.65;5.20;;;21.10;45.50;;;;;;5035968;28;20071;-71
2021/12/16 03:48:30;;;;;;;6.18;5.00;;;21.10;45.50;;;;;;5035932;28;20533;-71
2021/12/16 03:50:57;;;;;;;5.95;5.10;;;21.10;45.40;;;;;;5035223;28;20025;-71
2021/12/16 03:53:23;;;;;;;6.18;5.13;;;21.10;45.50;;;;;;5035603;28;20498;-71
2021/12/16 03:55:49;;;;;;;5.97;4.72;;;21.10;45.50;;;;;;5035732;28;20052;-71
2021/12/16 03:58:16;;;;;;;5.30;4.70;;;21.10;45.40;;;;;;5035563;28;20022;-71
2021/12/16 04:00:51;;;;;;;7.03;5.38;;;21.10;45.40;;;;;;5035517;28;20037;-71
2021/12/16 04:03:17;;;;;;;6.75;5.05;;;21.10;45.40;;;;;;5040381;28;20078;-70
2021/12/16 04:05:45;;;;;;;5.72;4.95;;;21.00;45.40;;;;;;5039728;28;20026;-70
2021/12/16 04:08:11;;;;;;;6.65;5.22;;;21.10;45.40;;;;;;5054342;28;20032;-71
2021/12/16 04:11:06;;;;;;;6.68;5.38;;;21.10;45.30;;;;;;5054991;28;20385;-71
2021/12/16 04:13:40;;;;;;;5.90;4.70;;;21.10;45.20;;;;;;5055089;28;20020;-71
2021/12/16 04:16:06;;;;;;;6.65;5.00;;;21.10;45.40;;;;;;5055076;28;20040;-71
2021/12/16 04:18:32;;;;;;;6.05;5.07;;;21.10;45.30;;;;;;5042457;28;20022;-71
2021/12/16 04:20:58;;;;;;;6.53;5.20;;;21.10;45.30;;;;;;5033928;28;20030;-71
2021/12/16 04:23:24;;;;;;;6.00;4.88;;;21.00;45.20;;;;;;5034813;28;20402;-71
2021/12/16 04:25:49;;;;;;;6.00;4.88;;;21.10;45.30;;;;;;5035136;28;20029;-71
2021/12/16 04:28:23;;;;;;;5.72;4.47;;;21.10;45.30;;;;;;5034593;28;20053;-71
2021/12/16 04:30:49;;;;;;;6.22;4.95;;;21.10;45.20;;;;;;5043003;28;20108;-71
2021/12/16 04:33:15;;;;;;;6.15;4.90;;;21.10;45.20;;;;;;5054367;28;20067;-71
2021/12/16 04:35:41;;;;;;;6.00;4.57;;;21.10;45.20;;;;;;5053385;28;20017;-71
2021/12/16 04:38:13;;;;;;;6.25;4.88;;;21.10;45.20;;;;;;5054406;28;20382;-71
2021/12/16 04:40:43;;;;;;;5.88;4.60;;;21.10;45.20;;;;;;5054744;28;20024;-71
2021/12/16 04:43:09;;;;;;;5.22;4.70;;;21.10;45.20;;;;;;5053424;28;20027;-72
2021/12/16 04:45:35;;;;;;;5.70;4.75;;;21.00;45.10;;;;;;5054658;28;20104;-71
2021/12/16 04:48:03;;;;;;;6.07;4.75;;;21.10;45.20;;;;;;5054614;28;20482;-71
2021/12/16 04:50:29;;;;;;;6.00;4.82;;;21.10;45.20;;;;;;5054644;28;20021;-71
2021/12/16 04:52:55;;;;;;;5.80;4.60;;;21.00;45.10;;;;;;5054175;28;20025;-71
2021/12/16 04:55:21;;;;;;;5.15;4.40;;;21.00;45.10;;;;;;5053226;28;20032;-71
2021/12/16 04:57:48;;;;;;;6.07;4.93;;;21.00;45.10;;;;;;5054167;28;20020;-71
2021/12/16 05:00:17;;;;;;;5.40;4.50;;;21.10;45.10;;;;;;5054341;28;20017;-71
2021/12/16 05:02:44;;;;;;;5.53;4.93;;;21.10;45.10;;;;;;5053085;28;20021;-71
2021/12/16 05:05:11;;;;;;;6.20;4.72;;;21.00;45.00;;;;;;5043278;28;20104;-70
2021/12/16 05:07:37;;;;;;;5.88;4.70;;;21.10;45.00;;;;;;5048908;28;20029;-70
2021/12/16 05:10:10;;;;;;;6.50;4.93;;;21.00;45.00;;;;;;5053922;28;20519;-70
2021/12/16 05:12:40;;;;;;;6.35;4.65;;;21.00;44.90;;;;;;5054071;28;20123;-70
2021/12/16 05:15:12;;;;;;;5.50;4.30;;;21.00;45.00;;;;;;5054463;28;20060;-70
2021/12/16 05:17:44;;;;;;;5.72;4.25;;;21.00;44.90;;;;;;5049241;28;20020;-70
2021/12/16 05:20:14;;;;;;;6.55;4.72;;;21.00;44.90;;;;;;5034236;28;20076;-70
2021/12/16 05:27:59;;;;;;;5.50;4.55;;;21.00;44.90;;;;;;5033796;28;20132;-70
2021/12/16 05:30:25;;;;;;;5.20;4.30;;;21.00;44.90;;;;;;5032579;28;20053;-70
2021/12/16 05:32:51;;;;;;;5.57;4.57;;;21.00;44.90;;;;;;5033422;28;20072;-70
2021/12/16 05:35:20;;;;;;;5.13;4.18;;;21.00;44.90;;;;;;5033742;28;20021;-70
2021/12/16 05:37:46;;;;;;;5.70;4.55;;;21.00;44.90;;;;;;5033508;28;20018;-70
2021/12/16 05:40:17;;;;;;;6.43;4.75;;;21.00;44.80;;;;;;5032040;28;20025;-70
2021/12/16 05:42:42;;;;;;;6.00;4.55;;;21.00;44.70;;;;;;5033427;28;20071;-70
2021/12/16 05:45:11;;;;;;;5.95;4.10;;;21.00;44.70;;;;;;5033595;28;20491;-71
2021/12/16 05:47:37;;;;;;;6.57;4.65;;;21.10;45.00;;;;;;5033354;28;20036;-70
2021/12/16 05:50:06;;;;;;;5.22;4.13;;;21.00;44.90;;;;;;5033385;28;20032;-70
2021/12/16 05:52:32;;;;;;;4.85;3.88;;;21.00;44.80;;;;;;5032088;28;20093;-70
2021/12/16 05:54:57;;;;;;;5.50;4.38;;;21.10;44.80;;;;;;5033202;28;20025;-70
2021/12/16 05:57:23;;;;;;;4.82;4.00;;;21.20;44.70;;;;;;5032160;28;20394;-70
2021/12/16 05:59:49;;;;;;;4.93;3.92;;;21.20;44.80;;;;;;5031997;28;20401;-70
2021/12/16 06:02:14;;;;;;;4.40;3.80;;;21.20;44.60;;;;;;5033363;28;20033;-70
2021/12/16 06:04:40;;;;;;;4.30;3.67;;;21.30;44.60;;;;;;5042620;28;20049;-70
2021/12/16 06:07:07;;;;;;;4.63;3.90;;;21.40;44.60;;;;;;5033147;28;20486;-70
2021/12/16 06:09:33;;;;;;;5.38;3.97;;;21.40;44.30;;;;;;5033202;28;20028;-70
2021/12/16 06:12:00;;;;;;;5.20;3.83;;;21.50;44.30;;;;;;5033161;28;20112;-70
2021/12/16 06:14:55;;;;;;;4.38;3.97;;;21.60;44.30;;;;;;5032883;28;20017;-70
2021/12/16 06:28:02;;;;;;;4.22;3.55;;;21.80;43.80;;;;;;5053032;28;20107;-70
2021/12/16 06:30:30;;;;;;;4.78;3.85;;;21.80;43.70;;;;;;5047872;28;20053;-70
2021/12/16 06:32:56;;;;;;;4.78;3.33;;;21.80;43.60;;;;;;5033083;28;20026;-70
2021/12/16 06:35:23;;;;;;;4.25;3.47;;;21.90;43.60;;;;;;5033230;28;20018;-70
2021/12/16 06:37:48;;;;;;;4.15;3.47;;;21.90;43.50;;;;;;5033210;28;20060;-70
2021/12/16 06:40:16;;;;;;;4.10;3.50;;;21.90;43.40;;;;;;5033061;28;20029;-70
2021/12/16 06:42:43;;;;;;;4.32;3.70;;;22.00;43.40;;;;;;5033283;28;20113;-70
2021/12/16 06:45:15;;;;;;;3.58;3.10;;;22.00;43.30;;;;;;5033121;28;20029;-70
2021/12/16 06:47:49;;;;;;;4.07;3.28;;;22.10;43.30;;;;;;5031663;28;20029;-70
2021/12/16 06:50:27;;;;;;;4.15;3.58;;;22.10;43.10;;;;;;5033129;28;20057;-70
2021/12/16 06:52:57;;;;;;;3.95;3.33;;;22.10;43.00;;;;;;5032945;28;20049;-70
2021/12/16 06:55:40;;;;;;;4.00;3.08;;;22.10;43.00;;;;;;5032855;28;20363;-70
2021/12/16 06:58:17;;;;;;;3.80;3.40;;;22.10;42.90;;;;;;5032958;28;20025;-71
2021/12/16 07:00:47;;;;;;;3.65;3.10;;;22.20;43.00;;;;;;5032927;28;20029;-70
2021/12/16 07:03:21;;;;;;;4.30;3.20;;;22.20;42.80;;;;;;5037198;28;20063;-70
2021/12/16 07:05:53;;;;;;;3.60;3.22;;;22.20;42.80;;;;;;5036972;28;20077;-70
2021/12/16 07:08:20;;;;;;;4.18;3.35;;;22.20;42.80;;;;;;5032944;28;20030;-70
2021/12/16 07:10:48;;;;;;;3.50;3.13;;;22.20;42.80;;;;;;5032888;28;20040;-70
2021/12/16 07:13:18;;;;;;;3.92;3.28;;;22.30;42.70;;;;;;5032806;28;20049;-70
2021/12/16 07:15:47;;;;;;;3.90;3.20;;;22.30;42.60;;;;;;5032822;28;20013;-70
2021/12/16 07:18:12;;;;;;;4.15;3.38;;;22.30;42.50;;;;;;5042329;28;20021;-70
2021/12/16 07:20:38;;;;;;;3.63;2.90;;;22.30;42.50;;;;;;5052896;28;20101;-70
2021/12/16 07:23:06;;;;;;;4.03;3.50;;;22.40;42.40;;;;;;5051290;28;20106;-70
2021/12/16 07:25:34;;;;;;;3.83;2.97;;;22.40;42.30;;;;;;5052744;28;20389;-70
2021/12/16 07:28:04;;;;;;;3.78;3.10;;;22.40;42.30;;;;;;5056317;28;20136;-70
2021/12/16 07:30:29;;;;;;;4.15;3.35;;;22.40;42.30;;;;;;5056352;28;20021;-70
2021/12/16 07:32:55;;;;;;;3.45;2.92;;;22.40;42.30;;;;;;5054557;28;20520;-70
2021/12/16 07:35:23;;;;;;;3.85;3.42;;;22.40;42.20;;;;;;5055986;28;20075;-70
2021/12/16 07:37:49;;;;;;;3.80;3.13;;;22.50;42.20;;;;;;5056111;28;20370;-70
2021/12/16 07:40:17;;;;;;;3.47;2.97;;;22.50;42.20;;;;;;5056208;28;20017;-70
2021/12/16 07:43:10;;;;;;;3.45;2.90;;;22.50;42.20;;;;;;5055845;28;20032;-71
2021/12/16 07:45:46;;;;;;;3.30;3.00;;;22.50;42.10;;;;;;5055929;28;20499;-70
2021/12/16 07:48:16;;;;;;;3.40;2.80;;;22.60;42.10;;;;;;5054642;28;20067;-70
2021/12/16 07:50:44;;;;;;;3.70;3.03;;;22.50;42.00;;;;;;5055517;28;20025;-70
2021/12/16 07:53:10;;;;;;;3.90;2.88;;;22.60;42.10;;;;;;5055775;28;20493;-70
2021/12/16 07:55:36;;;;;;;3.30;3.00;;;22.50;42.00;;;;;;5055535;28;20021;-70
2021/12/16 07:58:04;;;;;;;3.38;2.90;;;22.50;42.00;;;;;;5055576;28;20049;-70
2021/12/16 08:00:33;;;;;;;3.55;3.08;;;22.60;42.00;;;;;;5055906;28;20520;-71
2021/12/16 08:03:04;;;;;;;3.35;3.05;;;22.60;41.90;;;;;;5055324;28;20412;-70
2021/12/16 08:05:33;;;;;;;3.50;2.83;;;22.60;42.00;;;;;;5042888;28;20040;-71
2021/12/16 08:07:59;;;;;;;3.40;3.10;;;22.60;41.90;;;;;;5037834;28;20033;-71
2021/12/16 08:10:25;;;;;;;3.25;2.75;;;22.60;41.90;;;;;;5041930;28;20044;-71
2021/12/16 08:12:52;;;;;;;3.28;2.90;;;22.70;41.90;;;;;;5049030;28;20048;-71
2021/12/16 08:15:18;;;;;;;3.20;2.78;;;22.70;41.90;;;;;;5053402;28;20029;-71
2021/12/16 08:17:45;;;;;;;3.13;2.83;;;22.70;41.90;;;;;;5041918;28;20032;-71
2021/12/16 08:20:16;;;;;;;3.40;2.90;;;22.70;41.80;;;;;;5054528;28;20049;-71
2021/12/16 08:22:44;;;;;;;4.07;3.10;;;22.70;41.80;;;;;;5041833;28;20029;-71
2021/12/16 08:25:11;;;;;;;3.60;3.00;;;22.70;41.80;;;;;;5038962;28;20024;-71
2021/12/16 08:27:39;;;;;;;3.45;2.70;;;22.70;41.80;;;;;;5038098;28;20052;-71
2021/12/16 08:30:11;;;;;;;3.88;2.88;;;22.70;41.80;;;;;;5034667;28;20064;-71
2021/12/16 08:32:37;;;;;;;3.22;2.80;;;22.80;41.70;;;;;;5034967;28;20026;-71
2021/12/16 08:35:04;;;;;;;3.47;2.75;;;22.80;41.80;;;;;;5034994;28;20112;-71
2021/12/16 08:37:30;;;;;;;4.22;3.00;;;22.80;41.70;;;;;;5034406;28;20466;-71
2021/12/16 08:39:56;;;;;;;3.08;2.50;;;22.80;41.70;;;;;;5054004;28;20035;-71
2021/12/16 08:42:21;;;;;;;2.90;2.60;;;22.80;41.60;;;;;;5046180;28;20390;-71
2021/12/16 08:44:47;;;;;;;3.03;2.60;;;22.80;41.70;;;;;;5047853;28;20028;-71
2021/12/16 08:47:16;;;;;;;3.65;2.85;;;22.80;41.70;;;;;;5044804;28;20025;-71
2021/12/16 08:49:42;;;;;;;3.17;2.65;;;22.80;41.60;;;;;;5042904;28;20431;-70
2021/12/16 08:52:13;;;;;;;3.67;2.80;;;22.80;41.60;;;;;;5047382;28;20269;-70
2021/12/16 08:54:39;;;;;;;3.15;2.85;;;22.80;41.60;;;;;;5046682;28;20024;-70
2021/12/16 08:57:05;;;;;;;3.15;2.85;;;22.90;41.70;;;;;;5052709;28;20021;-71
2021/12/16 08:59:31;;;;;;;3.30;2.63;;;22.90;41.60;;;;;;5052370;28;20027;-70
2021/12/16 09:01:58;;;;;;;2.95;2.60;;;22.90;41.70;;;;;;5053468;28;20244;-70
2021/12/16 09:04:25;;;;;;;3.20;2.75;;;22.90;41.60;;;;;;5048739;28;20490;-70
2021/12/16 09:07:01;;;;;;;2.72;2.40;;;22.90;41.60;;;;;;5041455;28;20500;-70
2021/12/16 09:09:32;;;;;;;3.17;2.75;;;22.90;41.50;;;;;;5048017;28;20035;-70
2021/12/16 09:12:10;;;;;;;3.20;2.63;;;22.90;41.60;;;;;;5053925;28;20017;-70
2021/12/16 09:14:38;;;;;;;2.97;2.60;;;22.90;41.60;;;;;;5059200;28;20095;-70
2021/12/16 09:17:09;;;;;;;3.58;2.80;;;22.90;41.60;;;;;;5054990;28;20427;-70
2021/12/16 09:19:36;;;;;;;5.78;3.22;;;22.90;41.60;;;;;;5049711;28;20036;-70
2021/12/16 09:22:02;;;;;;;5.47;3.17;;;22.90;41.30;;;;;;5038838;28;20036;-70
2021/12/16 09:24:28;;;;;;;3.65;3.22;;;22.90;41.20;;;;;;5046442;28;20029;-71
2021/12/16 09:26:53;;;;;;;3.72;3.20;;;22.90;41.20;;;;;;5061958;28;20033;-71
2021/12/16 09:29:19;;;;;;;3.65;3.20;;;22.90;41.20;;;;;;5067351;28;20037;-70
2021/12/16 09:31:45;;;;;;;3.42;3.13;;;22.90;41.20;;;;;;5055329;28;20013;-70
2021/12/16 09:34:10;;;;;;;4.47;3.30;;;22.80;41.10;;;;;;5064042;28;20364;-70
2021/12/16 09:36:40;;;;;;;3.40;3.00;;;22.80;41.10;;;;;;5063948;28;20512;-70
2021/12/16 09:39:11;;;;;;;3.50;2.97;;;22.80;41.00;;;;;;5070036;28;20425;-71
2021/12/16 09:41:38;;;;;;;2.95;2.70;;;22.80;41.00;;;;;;5052994;28;20013;-70
2021/12/16 09:44:04;;;;;;;3.20;2.90;;;22.80;41.10;;;;;;5059465;28;20071;-70
2021/12/16 09:46:30;;;;;;;3.35;3.00;;;22.80;41.00;;;;;;5058706;28;20021;-71
2021/12/16 09:48:56;;;;;;;4.43;2.90;;;22.80;40.90;;;;;;5058512;28;20028;-71
2021/12/16 09:51:25;;;;;;;3.58;3.22;;;22.80;41.00;;;;;;5067300;28;20021;-71
2021/12/16 09:53:55;;;;;;;3.25;2.90;;;22.80;41.00;;;;;;5069218;28;20051;-71
2021/12/16 09:56:22;;;;;;;3.50;3.08;;;22.80;41.00;;;;;;5057110;28;20071;-71
2021/12/16 09:58:50;;;;;;;3.67;3.10;;;22.80;41.00;;;;;;5064188;28;20086;-71
2021/12/16 10:01:17;;;;;;;3.58;3.00;;;22.80;41.00;;;;;;5066073;28;20040;-70
2021/12/16 10:03:52;;;;;;;4.00;3.00;;;22.80;41.00;;;;;;5057372;28;20457;-70
2021/12/16 10:06:19;;;;;;;3.33;2.88;;;22.80;41.00;;;;;;5059402;28;20040;-70
2021/12/16 10:08:46;;;;;;;3.15;2.80;;;22.80;41.00;;;;;;5061869;28;20016;-70
2021/12/16 10:11:12;;;;;;;3.50;3.20;;;22.80;41.10;;;;;;5058533;28;20025;-70
2021/12/16 10:13:45;;;;;;;3.42;3.08;;;22.80;41.10;;;;;;5059012;28;20067;-71
2021/12/16 10:18:37;;;;;;;3.72;3.28;;;22.80;41.10;;;;;;5062425;28;20067;-71
2021/12/16 10:21:07;;;;;;;3.53;3.05;;;22.80;41.10;;;;;;5062607;28;20427;-70
2021/12/16 10:23:44;;;;;;;3.15;2.72;;;22.80;41.10;;;;;;5065344;28;20043;-70
2021/12/16 10:26:17;;;;;;;3.47;2.90;;;22.90;41.10;;;;;;5054575;28;20025;-70
2021/12/16 10:28:45;;;;;;;3.95;3.30;;;22.80;41.10;;;;;;5069041;28;20054;-70
2021/12/16 10:31:22;;;;;;;3.55;2.97;;;22.80;41.10;;;;;;5054051;28;20025;-71
2021/12/16 10:34:09;;;;;;;3.88;2.90;;;22.90;41.20;;;;;;5066832;28;20050;-70
2021/12/16 10:36:47;;;;;;;4.18;3.25;;;22.90;41.20;;;;;;5056292;28;20021;-70
2021/12/16 10:39:22;;;;;;;3.28;2.83;;;22.90;41.30;;;;;;5041669;28;20025;-71
2021/12/16 10:41:50;;;;;;;3.88;3.20;;;22.80;41.30;;;;;;5067207;28;20016;-70
2021/12/16 10:44:25;;;;;;;3.50;3.00;;;22.90;41.40;;;;;;5062886;28;20452;-71
2021/12/16 10:47:02;;;;;;;3.35;3.00;;;22.90;41.40;;;;;;5064089;28;20672;-70
2021/12/16 10:49:37;;;;;;;3.72;3.22;;;22.90;41.40;;;;;;5060127;28;20032;-70
2021/12/16 10:52:09;;;;;;;3.90;3.30;;;22.90;41.40;;;;;;5069033;28;20021;-70
2021/12/16 10:54:41;;;;;;;3.65;2.95;;;22.90;41.40;;;;;;5057533;28;20533;-70
2021/12/16 10:57:22;;;;;;;4.30;3.40;;;22.90;41.50;;;;;;5051448;28;20108;-70
2021/12/16 11:00:12;;;;;;;3.88;3.33;;;22.90;41.30;;;;;;5066066;28;20805;-70
2021/12/16 11:02:39;;;;;;;4.60;3.50;;;22.90;41.40;;;;;;5047206;28;20673;-70
2021/12/16 11:05:14;;;;;;;3.40;2.88;;;22.80;41.30;;;;;;5061578;28;20023;-70
2021/12/16 11:07:50;;;;;;;3.60;3.30;;;22.80;41.30;;;;;;5061879;28;20083;-70
2021/12/16 11:10:28;;;;;;;4.07;3.40;;;22.90;42.40;;;;;;5064083;28;20078;-70
2021/12/16 11:12:59;;;;;;;3.58;2.88;;;22.90;41.50;;;;;;5063418;28;20100;-70
2021/12/16 11:15:32;;;;;;;4.28;3.50;;;22.90;41.50;;;;;;5060369;28;20021;-70
2021/12/16 11:18:22;;;;;;;3.95;3.22;;;22.80;41.40;;;;;;5061633;28;20044;-70
2021/12/16 11:20:51;;;;;;;3.67;3.20;;;22.90;41.30;;;;;;5067266;28;20521;-70
2021/12/16 11:23:40;;;;;;;3.55;3.05;;;22.90;41.50;;;;;;5069119;28;20013;-70
2021/12/16 11:26:05;;;;;;;3.42;3.13;;;22.90;41.50;;;;;;5073023;28;20496;-71
2021/12/16 11:28:35;;;;;;;3.53;3.22;;;22.80;41.50;;;;;;5062227;28;20069;-70
2021/12/16 11:31:06;;;;;;;3.60;3.22;;;22.90;41.60;;;;;;5060224;28;20641;-70
2021/12/16 11:33:33;;;;;;;3.97;3.40;;;22.90;41.60;;;;;;5055837;28;20112;-70
2021/12/16 11:36:21;;;;;;;4.35;3.45;;;22.90;41.60;;;;;;5066593;28;20526;-70
2021/12/16 11:39:02;;;;;;;3.63;3.20;;;22.90;41.50;;;;;;5057061;28;20122;-70
2021/12/16 11:41:28;;;;;;;4.18;3.35;;;22.90;41.50;;;;;;5055754;28;20535;-70
2021/12/16 11:44:11;;;;;;;4.18;3.30;;;22.90;41.70;;;;;;5064381;28;20119;-70
2021/12/16 11:46:57;;;;;;;4.65;3.13;;;22.90;41.60;;;;;;5061861;28;20048;-72
2021/12/16 11:49:32;;;;;;;3.95;3.55;;;22.90;41.60;;;;;;5049124;28;20096;-72
2021/12/16 11:52:09;;;;;;;3.90;3.40;;;22.90;41.70;;;;;;5062493;28;20033;-72
2021/12/16 11:54:56;;;;;;;3.70;3.40;;;22.90;41.90;;;;;;5064774;28;20559;-73
2021/12/16 11:57:34;;;;;;;4.55;3.65;;;22.90;41.80;;;;;;5069209;28;20021;-72
2021/12/16 12:00:03;;;;;;;6.10;3.65;;;22.90;41.90;;;;;;5059685;28;20036;-72
2021/12/16 12:02:33;;;;;;;3.92;3.30;;;22.90;42.00;;;;;;5065567;28;20115;-72
2021/12/16 12:05:25;;;;;;;4.47;3.63;;;22.90;42.00;;;;;;5058901;28;20497;-72
2021/12/16 12:07:55;;;;;;;4.15;3.40;;;22.90;41.90;;;;;;5060439;28;20527;-72
2021/12/16 12:10:50;;;;;;;5.13;3.78;;;22.90;42.10;;;;;;5053622;28;20112;-72
2021/12/16 12:13:15;;;;;;;4.25;3.75;;;22.90;42.00;;;;;;5060175;28;20029;-72
2021/12/16 12:15:58;;;;;;;4.20;3.50;;;22.90;42.10;;;;;;5059711;28;20032;-72
2021/12/16 12:18:32;;;;;;;4.97;3.55;;;22.90;42.10;;;;;;5051475;28;20524;-72
2021/12/16 12:21:19;;;;;;;4.75;3.47;;;22.90;42.10;;;;;;5066341;28;20032;-72
2021/12/16 12:23:47;;;;;;;5.15;3.50;;;22.90;42.00;;;;;;5068089;28;20056;-72
2021/12/16 12:26:16;;;;;;;5.30;3.78;;;22.90;42.20;;;;;;5049120;28;20029;-72
2021/12/16 12:28:54;;;;;;;5.10;4.05;;;22.90;42.20;;;;;;5058943;28;20497;-72
2021/12/16 12:31:22;;;;;;;4.60;3.80;;;22.90;42.20;;;;;;5070121;28;20039;-72
2021/12/16 12:33:48;;;;;;;3.65;3.17;;;22.90;42.20;;;;;;5063313;28;20388;-72
2021/12/16 12:36:16;;;;;;;4.63;3.67;;;22.90;42.30;;;;;;5065052;28;20020;-71
2021/12/16 12:38:42;;;;;;;4.78;3.88;;;22.90;42.30;;;;;;5065826;28;20021;-72
2021/12/16 12:41:08;;;;;;;4.35;3.70;;;22.90;42.30;;;;;;5063678;28;20392;-72
2021/12/16 12:43:35;;;;;;;6.50;3.75;;;22.90;42.40;;;;;;5062890;28;20021;-72
2021/12/16 12:46:05;;;;;;;4.93;3.58;;;22.90;42.40;;;;;;5063530;28;20033;-72
2021/12/16 12:48:33;;;;;;;5.88;3.80;;;22.90;42.30;;;;;;5065405;28;20389;-72
2021/12/16 12:50:59;;;;;;;4.30;3.35;;;22.90;42.30;;;;;;5065671;28;20111;-72
2021/12/16 12:53:39;;;;;;;4.70;3.83;;;22.90;42.40;;;;;;5062463;28;20586;-72
2021/12/16 12:56:13;;;;;;;4.63;4.05;;;22.90;42.40;;;;;;5062705;28;20025;-72
2021/12/16 12:58:58;;;;;;;4.88;3.65;;;22.90;42.40;;;;;;5062115;28;20104;-72
2021/12/16 13:01:59;;;;;;;3.85;3.20;;;22.90;42.30;;;;;;5058957;28;20468;-72
2021/12/16 13:04:50;;;;;;;3.63;3.15;;;22.90;42.40;;;;;;5065726;28;20085;-72
2021/12/16 13:07:16;;;;;;;3.75;3.30;;;22.90;42.50;;;;;;5059904;28;20132;-72
2021/12/16 13:09:53;;;;;;;6.00;3.55;;;22.90;42.60;;;;;;5061774;28;20431;-74
2021/12/16 13:12:36;;;;;;;3.85;3.40;;;22.90;42.60;;;;;;5066040;28;20025;-73
2021/12/16 13:15:25;;;;;;;5.30;3.67;;;22.90;42.60;;;;;;5049757;28;20075;-72
2021/12/16 13:26:41;;;;;;;3.97;3.58;;;22.90;42.80;;;;;;5061973;28;20022;-72
2021/12/16 13:29:53;;;;;;;4.05;3.70;;;22.90;42.90;;;;;;5060693;28;20068;-72
2021/12/16 13:32:24;;;;;;;4.43;3.80;;;22.90;42.80;;;;;;5070496;28;20088;-72
2021/12/16 13:34:59;;;;;;;4.97;4.10;;;22.90;42.90;;;;;;5060520;28;20020;-72
2021/12/16 13:37:32;;;;;;;4.43;3.80;;;22.80;43.00;;;;;;5062259;28;20478;-72
2021/12/16 13:40:08;;;;;;;4.55;3.50;;;22.80;43.00;;;;;;5070532;28;20024;-72
2021/12/16 13:42:51;;;;;;;4.88;4.28;;;22.90;42.90;;;;;;5051555;28;20150;-71
2021/12/16 13:45:26;;;;;;;4.00;3.60;;;22.90;43.00;;;;;;5053975;28;20421;-71
2021/12/16 14:00:07;;;;;;;4.15;3.40;;;22.90;43.00;;;;;;5056762;28;20082;-72
2021/12/16 14:02:30;;;;;;;4.97;3.72;;;22.90;43.00;;;;;;5066524;28;20537;-72
2021/12/16 14:05:28;;;;;;;3.95;3.38;;;22.90;43.00;;;;;;5058494;28;20025;-72
2021/12/16 14:08:05;;;;;;;3.67;3.25;;;22.90;43.10;;;;;;5055998;28;20024;-72
2021/12/16 14:11:02;;;;;;;3.83;3.50;;;22.90;43.00;;;;;;5052020;28;20495;-72
2021/12/16 14:17:13;;;;;;;4.55;3.60;;;22.90;43.00;;;;;;5059927;28;20484;-73
2021/12/16 14:31:09;;;;;;;4.38;3.40;;;22.90;42.90;;;;;;5056771;28;20702;-72
2021/12/16 14:41:13;;;;;;;3.83;3.42;;;22.90;43.00;;;;;;5069446;28;20123;-72
2021/12/16 14:43:53;;;;;;;3.97;3.50;;;22.90;43.00;;;;;;5072466;28;20036;-71
2021/12/16 14:46:29;;;;;;;4.20;3.47;;;22.90;43.00;;;;;;5059024;28;20032;-72
2021/12/16 14:48:55;;;;;;;4.82;3.63;;;22.90;42.90;;;;;;5057222;28;20389;-72
2021/12/16 14:51:21;;;;;;;4.13;3.40;;;22.90;43.00;;;;;;5069432;28;20027;-72
2021/12/16 14:53:53;;;;;;;4.22;3.67;;;22.90;42.90;;;;;;5063593;28;20104;-72
2021/12/16 14:56:24;;;;;;;4.28;3.47;;;22.90;42.80;;;;;;5075698;28;20017;-72
2021/12/16 14:58:55;;;;;;;5.40;3.63;;;22.90;42.80;;;;;;5066214;28;20024;-72
2021/12/16 15:01:29;;;;;;;4.22;3.40;;;22.90;42.80;;;;;;5066844;28;20021;-72
2021/12/16 15:03:55;;;;;;;4.40;3.80;;;22.90;42.80;;;;;;5064490;28;20029;-72
2021/12/16 15:06:47;;;;;;;4.28;3.67;;;22.90;42.90;;;;;;5077815;28;20021;-72
2021/12/16 15:09:23;;;;;;;4.03;3.53;;;23.00;43.10;;;;;;5067842;28;20021;-72
2021/12/16 15:12:19;;;;;;;4.32;3.80;;;22.90;42.80;;;;;;5074510;28;20061;-72
2021/12/16 15:45:33;;;;;;;3.83;3.40;;;22.90;42.50;;;;;;5069650;28;20040;-72
2021/12/16 15:48:11;;;;;;;4.50;4.00;;;22.90;42.60;;;;;;5072802;28;20028;-73
2021/12/16 15:50:49;;;;;;;4.70;4.10;;;22.90;42.60;;;;;;5060787;28;20017;-73
2021/12/16 15:53:22;;;;;;;6.47;3.80;;;22.90;42.70;;;;;;5063748;28;20443;-72
2021/12/16 15:55:56;;;;;;;4.30;3.78;;;22.90;42.70;;;;;;5070135;28;20425;-72
2021/12/16 15:58:30;;;;;;;4.32;3.50;;;22.90;42.60;;;;;;5050504;28;20100;-72
2021/12/16 16:01:04;;;;;;;4.25;3.33;;;22.90;42.50;;;;;;5051838;28;20059;-72
2021/12/16 16:03:30;;;;;;;4.70;3.95;;;22.90;42.50;;;;;;5063565;28;20036;-72
2021/12/16 16:06:02;;;;;;;4.40;3.83;;;22.90;42.50;;;;;;5071478;28;20028;-73
2021/12/16 16:08:29;;;;;;;;;;;22.90;42.40;;;;;;5035909;28;20021;-72
2021/12/16 16:11:07;;;;;;;4.35;3.50;;;22.90;42.40;;;;;;5052674;28;19935;-72
2021/12/16 16:13:40;;;;;;;4.22;3.67;;;22.90;42.60;;;;;;5063982;28;20462;-72
2021/12/16 16:16:07;;;;;;;4.28;3.67;;;22.90;42.60;;;;;;5074114;28;20024;-72
2021/12/16 16:18:36;;;;;;;4.20;3.80;;;22.90;42.50;;;;;;5061744;28;20361;-73
2021/12/16 16:21:25;;;;;;;4.47;3.50;;;22.90;42.40;;;;;;5067989;28;20021;-72
2021/12/16 16:23:55;;;;;;;4.75;3.92;;;22.90;42.30;;;;;;5072715;28;20150;-72
2021/12/16 16:26:22;;;;;;;5.82;3.80;;;22.90;42.40;;;;;;5060089;28;20028;-72
2021/12/16 16:28:52;;;;;;;4.03;3.63;;;22.90;42.30;;;;;;5069292;28;20472;-72
2021/12/16 16:31:22;;;;;;;5.03;3.90;;;22.90;42.30;;;;;;5066807;28;20107;-72
2021/12/16 16:33:50;;;;;;;4.07;3.67;;;22.90;42.20;;;;;;5061233;28;20378;-73
2021/12/16 16:36:19;;;;;;;5.40;4.20;;;22.90;42.10;;;;;;5072962;28;20351;-72
2021/12/16 16:38:58;;;;;;;4.88;4.03;;;22.90;42.00;;;;;;5063007;28;20530;-72
2021/12/16 16:41:28;;;;;;;4.18;3.70;;;22.90;41.90;;;;;;5062818;28;20028;-73
2021/12/16 16:44:03;;;;;;;5.10;3.78;;;22.90;41.90;;;;;;5071627;28;20028;-73